• Join FlightAware (Why Join?)
  • Login
  • US Flag 
03:18AM EDT


 

Airport Tracker/Info


-or-


 

Live Flight TrackerFlight Track Log ✈ AWE1940 ✈ 17-May-2013 ✈ KIAH - KCLT

Flight Track Log - Related Links

Times and Time Zones

All times are in EDT time to prevent confusion due to time zone crossing. See the AWE1940 flight status page for this flight to view local times or setup timezone preferences in your user account.

Time Position Orientation Groundspeed Altitude Reporting Facility
EDT Latitude Longitude Course Direction KTS MPH feet Rate Location/Type
06:39PM 29.9594 -95.3414 90° East 182 209 800  Level Houston Center
06:40PM 29.9369 -95.2333 103° East 285 328 3,600 1,860 Climbing Houston Center
06:41PM 29.9389 -95.2125 84° East 273 314 4,100 2,880 Climbing Houston Center
06:42PM 29.9834 -94.7981 90° East  Level FlightAware Approximate
06:42PM 29.9614 -95.1219 74° East 290 334 7,500  Level Houston Center
06:43PM 29.9833 -94.6643 90° East  Level FlightAware Approximate
06:43PM 29.9644 -95.0289 88° East 289 333 9,700  Level Houston Center
06:44PM 29.9833 -94.5305 90° East  Level FlightAware Approximate
06:44PM 29.9703 -94.9289 86° East 309 356 12,300  Level Houston Center
06:45PM 29.9744 -94.8300 87° East 307 353 14,900 2,280 Climbing Houston Center
06:46PM 29.9811 -94.7042 86° East 325 374 17,100 1,980 Climbing Houston Center
06:47PM 29.9875 -94.5906 86° East 350 403 19,000 1,680 Climbing Houston Center
06:48PM 29.9914 -94.4797 88° East 360 414 20,600 1,080 Climbing Houston Center
06:49PM 29.9958 -94.3547 88° East 387 445 21,300 1,080 Climbing Houston Center
06:50PM 30.0125 -94.1894 83° East 429 494 22,900 1,500 Climbing Houston Center
06:51PM 30.0303 -94.0508 82° East 439 505 24,500 1,440 Climbing Houston Center
06:52PM 30.0475 -93.9083 82° East 448 516 25,900 1,200 Climbing Houston Center
06:53PM 30.0656 -93.7631 82° East 459 528 27,000 960 Climbing Houston Center
06:54PM 30.0836 -93.6122 82° East 476 548 28,000 1,080 Climbing Houston Center
06:55PM 30.1047 -93.4278 82° East 492 566 29,300 1,260 Climbing Houston Center
06:56PM 30.1236 -93.2719 82° East 497 572 30,700 1,260 Climbing Houston Center
06:57PM 30.1439 -93.1200 81° East 488 562 32,000 1,020 Climbing Houston Center
06:58PM 30.1975 -92.9828 66° East 476 548 32,900 420 Climbing Houston Center
06:59PM 30.2581 -92.8500 62° Northeast 474 545 32,900  Level Houston Center
07:00PM 30.3303 -92.6889 63° Northeast 475 547 32,900  Level Houston Center
07:01PM 30.3906 -92.5536 63° Northeast 475 547 32,900  Level Houston Center
07:02PM 30.4500 -92.4175 63° Northeast 476 548 32,900  Level Houston Center
07:03PM 30.5111 -92.2800 63° Northeast 477 549 32,900  Level Houston Center
07:04PM 30.5700 -92.1447 63° Northeast 475 547 32,900  Level Houston Center
07:05PM 30.6414 -91.9825 63° Northeast 475 547 32,900  Level Houston Center
07:06PM 30.7011 -91.8469 63° Northeast 474 545 32,900  Level Houston Center
07:07PM 30.7606 -91.7108 63° Northeast 475 547 32,900  Level Houston Center
07:09PM 30.8197 -91.5758 63° Northeast 473 544 32,900  Level Houston Center
07:10PM 30.8789 -91.4400 63° Northeast 474 545 32,900  Level Houston Center
07:11PM 30.9483 -91.2764 64° Northeast 472 543 32,900  Level Houston Center
07:12PM 31.0097 -91.1347 63° Northeast 474 545 32,900  Level Houston Center
07:13PM 31.0686 -90.9964 64° Northeast 474 545 32,900  Level Houston Center
07:14PM 31.1286 -90.8575 63° Northeast 477 549 32,900  Level Houston Center
07:15PM 31.1869 -90.7192 64° Northeast 476 548 32,900  Level Houston Center
07:16PM 31.2464 -90.5794 64° Northeast 477 549 32,900  Level Houston Center
07:17PM 31.3053 -90.4406 64° Northeast 476 548 32,900  Level Houston Center
07:18PM 31.3636 -90.3011 64° Northeast 477 549 32,900  Level Houston Center
07:19PM 31.4333 -90.1333 64° Northeast 477 549 32,900  Level Houston Center
07:20PM 31.4917 -89.9931 64° Northeast 476 548 32,900  Level Houston Center
07:21PM 31.5511 -89.8522 64° Northeast 480 552 32,900  Level Houston Center
07:22PM 31.6097 -89.7122 64° Northeast 479 551 32,900  Level Houston Center
07:23PM 31.6664 -89.5703 65° Northeast 479 551 32,900  Level Houston Center
07:24PM 31.7258 -89.4281 64° Northeast 476 548 32,900  Level Houston Center
07:25PM 31.7700 -89.3189 65° Northeast 486 559 32,900  Level Memphis Center
07:26PM 31.8269 -89.1789 64° Northeast 480 552 32,900  Level Memphis Center
07:27PM 31.8739 -89.0583 65° Northeast 462 532 32,900  Level Memphis Center
07:28PM 31.9350 -88.9181 63° Northeast 462 532 32,900  Level Memphis Center
07:29PM 31.9958 -88.7628 65° Northeast 473 544 32,900  Level Memphis Center
07:30PM 32.0758 -88.5594 65° Northeast 465 535 32,900  Level Houston Center
07:31PM 32.1111 -88.4819 62° Northeast 453 521 32,900  Level Atlanta Center
07:32PM 32.1664 -88.3422 65° Northeast 458 527 32,900  Level Atlanta Center
07:33PM 32.2211 -88.2050 65° Northeast 458 527 32,900  Level Atlanta Center
07:34PM 32.2756 -88.0700 64° Northeast 453 521 32,900  Level Atlanta Center
07:35PM 32.3281 -87.9322 66° East 453 521 32,900  Level Atlanta Center
07:36PM 32.3822 -87.8019 64° Northeast 453 521 32,900  Level Atlanta Center
07:37PM 32.4342 -87.6686 65° Northeast 453 521 32,900  Level Atlanta Center
07:38PM 32.4822 -87.5278 68° East 453 521 32,900  Level Atlanta Center
07:39PM 32.5092 -87.3811 78° East 453 521 32,900  Level Atlanta Center
07:40PM 32.5150 -87.2361 87° East 443 510 32,900  Level Atlanta Center
07:41PM 32.5147 -87.0858 90° East 449 517 32,900  Level Atlanta Center
07:42PM 32.5142 -86.9381 90° East 444 511 32,900  Level Atlanta Center
07:43PM 32.5156 -86.7878 89° East 444 511 32,900  Level Atlanta Center
07:44PM 32.5144 -86.6400 90° East 444 511 32,900  Level Atlanta Center
07:45PM 32.5258 -86.4975 85° East 439 505 32,900  Level Atlanta Center
07:46PM 32.5517 -86.3478 78° East 444 511 32,900  Level Atlanta Center
07:47PM 32.6061 -86.2161 64° Northeast 438 504 32,900  Level Atlanta Center
07:48PM 32.6628 -86.0842 63° Northeast 444 511 32,900  Level Atlanta Center
07:49PM 32.7192 -85.9522 63° Northeast 444 511 32,900  Level Atlanta Center
07:50PM 32.7753 -85.8200 63° Northeast 444 511 32,900  Level Atlanta Center
07:51PM 32.8314 -85.6878 63° Northeast 444 511 32,900  Level Atlanta Center
07:52PM 32.8875 -85.5503 64° Northeast 444 511 32,900  Level Atlanta Center
07:53PM 32.9453 -85.4175 63° Northeast 444 511 32,900  Level Atlanta Center
07:54PM 33.0011 -85.2847 63° Northeast 444 511 32,900  Level Atlanta Center
07:55PM 33.0608 -85.1392 64° Northeast 444 511 32,900  Level Atlanta Center
07:56PM 33.1164 -85.0061 63° Northeast 444 511 32,900  Level Atlanta Center
07:57PM 33.1736 -84.8678 64° Northeast 444 511 32,900  Level Atlanta Center
07:58PM 33.2286 -84.7342 64° Northeast 450 518 32,900  Level Atlanta Center
07:59PM 33.2836 -84.5956 65° Northeast 450 518 32,900  Level Atlanta Center
08:00PM 33.3406 -84.4567 64° Northeast 450 518 32,900  Level Atlanta Center
08:01PM 33.3953 -84.3200 64° Northeast 450 518 32,900  Level Atlanta Center
08:02PM 33.4519 -84.1856 63° Northeast 450 518 32,900  Level Atlanta Center
08:03PM 33.5061 -84.0464 65° Northeast 450 518 32,900  Level Atlanta Center
08:04PM 33.5625 -83.9067 64° Northeast 450 518 32,900  Level Atlanta Center
08:05PM 33.6186 -83.7719 63° Northeast 445 512 32,900  Level Atlanta Center
08:06PM 33.6747 -83.6344 64° Northeast 450 518 32,900 -600 Level Atlanta Center
08:07PM 33.7283 -83.4944 65° Northeast 450 518 31,800 -1,080 Descending Atlanta Center
08:08PM 33.7819 -83.3589 65° Northeast 445 512 30,800 -900 Descending Atlanta Center
08:09PM 33.8356 -83.2386 62° Northeast 445 512 30,000 -900 Descending Atlanta Center
08:10PM 33.9078 -83.1153 55° Northeast 445 512 29,100 -600 Descending Atlanta Center
08:11PM 33.9775 -82.9817 58° Northeast 458 527 28,900 -120 Descending Atlanta Center
08:12PM 34.0453 -82.8531 58° Northeast 463 533 28,900  Level Atlanta Center
08:13PM 34.1150 -82.7267 56° Northeast 458 527 28,900 -120 Level Atlanta Center
08:14PM 34.1883 -82.5822 58° Northeast 458 527 28,700 -600 Descending Atlanta Center
08:15PM 34.2578 -82.4528 57° Northeast 458 527 27,700 -1,020 Descending Atlanta Center
08:16PM 34.3269 -82.3233 57° Northeast 458 527 26,700 -1,740 Descending Atlanta Center
08:17PM 34.3919 -82.1961 58° Northeast 458 527 24,300 -2,460 Descending Atlanta Center
08:18PM 34.4567 -82.0714 58° Northeast 452 520 21,800 -2,460 Descending Atlanta Center
08:19PM 34.5175 -81.9514 58° Northeast 433 498 19,400 -2,400 Descending Atlanta Center
08:20PM 34.5800 -81.8389 56° Northeast 416 479 17,100 -2,400 Descending Atlanta Center
08:20PM 34.6044 -81.7928 57° Northeast 396 456 15,900 -2,400 Descending Atlanta Center
08:21PM 34.6344 -81.7264 61° Northeast 403 464 14,700 -2,460 Descending Atlanta Center
08:21PM 34.6525 -81.6956 55° Northeast 384 442 13,900 -2,220 Descending Atlanta Center
08:22PM 34.6889 -81.6289 56° Northeast 385 443 12,500 -1,980 Descending Atlanta Center
08:22PM 34.7111 -81.5903 55° Northeast 376 433 11,900 -600 Descending Atlanta Center
08:23PM 34.7433 -81.5311 56° Northeast 373 429 11,900  Level Atlanta Center
08:23PM 34.7697 -81.4975 46° Northeast 350 403 11,900  Level Atlanta Center
08:24PM 34.8164 -81.4381 46° Northeast 351 404 11,900  Level Atlanta Center
08:24PM 34.8428 -81.4042 47° Northeast 350 403 11,900 -540 Level Atlanta Center
08:25PM 34.8856 -81.3472 48° Northeast 345 397 11,400 -900 Descending Atlanta Center
08:26PM 34.9503 -81.2639 47° Northeast 340 391 10,400 -1,080 Descending Atlanta Center
08:26PM 34.9708 -81.2406 43° Northeast 347 399 10,100 -540 Descending Atlanta Center
08:27PM 35.0153 -81.1831 47° Northeast 328 377 9,900 -720 Descending Atlanta Center
08:27PM 35.0294 -81.1625 50° Northeast 309 356 9,400 -1,020 Descending Atlanta Center
08:28PM 35.0700 -81.1103 46° Northeast 298 343 8,900 -480 Descending Atlanta Center
08:28PM 35.0922 -81.0867 41° Northeast 288 331 8,900  Level Atlanta Center
08:29PM 35.1356 -81.0597 27° Northeast 288 331 8,900  Level Atlanta Center
08:29PM 35.1669 -81.0661 351° North 291 335 8,900 -840 Level Atlanta Center
08:30PM 35.2192 -81.0694 357° North 265 305 8,100 -1,080 Descending Atlanta Center
08:30PM 35.2589 -81.0756 353° North 284 327 7,700 -1,260 Descending Atlanta Center
08:31PM 35.3322 -81.0806 357° North 256 295 6,200 -1,680 Descending Atlanta Center
08:32PM 35.3897 -81.0428 28° Northeast 269 310 4,300 -1,920 Descending Atlanta Center